Terminal Aerodrome Forecast
Issued by NWS Charleston, WV

Home | Current Version | Previous Version | Text Only | Print | Product List | Glossary On
Versions: 1 2 3 4 5 6 7 8 9 10 11 12 13 14 15 16 17 18 19 20 21 22 23 24 25
000
FTUS41 KRLX 280201 AAB
TAFCRW
TAF AMD
KCRW 280201Z 2802/2824 15003KT P6SM VCTS BKN050CB
      TEMPO 2803/2806 3SM TSRA SCT025 OVC040CB
     FM280600 24004KT 4SM SHRA OVC030
     FM280900 VRB03KT 5SM SHRA OVC020
     FM281300 25005KT P6SM OVC025
     FM282000 32007KT P6SM BKN035=

USA.gov is the U.S. government's official web portal to all federal, state and local government web resources and services.